WUK79 EGGW-LGAV
Flight info
| Callsign | WUK79 |
|---|---|
| Flight time | 3h 21m |
| Altitude | 35000 |
| Route | MATCH2C MATCH Q295 BRAIN P44 DAGGA M85 ITVIP L10 DVR UL9 KONAN DCT KOK DCT REMBA DCT RITAX DCT KRH DCT UTABA DCT BEMKI DCT ELMEM DCT DIRAB DCT PEVAL DCT AIOSA DCT NOSTO UL612 ARA UB34 NEMES NEMES1Q |
| Aircraft | A21N/M-SDE1E2E3FGIJ1J4RWXY/LB1 |
Departure
| Time | 2026-05-07 04:37 |
|---|---|
| Airport | London Luton Airport (EGGW) |
Arrival
| Time | 2026-05-07 07:58 |
|---|---|
| Airport | Athens Eleftherios Venizelos International Airport (LGAV) |
| Time | Latitude | Longitude | Altitude | Speed | Heading |
|---|---|---|---|---|---|
| 2026-05-07 04:15 | 51.88173 | -0.37364 | 539 ft | 0 kts | 161° |
| 2026-05-07 04:25 | 51.88192 | -0.37375 | 539 ft | 0 kts | 161° |
| 2026-05-07 04:25 | 51.88217 | -0.37389 | 539 ft | 0 kts | 161° |
| 2026-05-07 04:26 | 51.88236 | -0.37403 | 539 ft | 4 kts | 127° |
| 2026-05-07 04:26 | 51.88243 | -0.37440 | 539 ft | 0 kts | 82° |
| 2026-05-07 04:26 | 51.88236 | -0.37478 | 539 ft | 0 kts | 72° |
| 2026-05-07 04:26 | 51.88235 | -0.37485 | 539 ft | 0 kts | 72° |
| 2026-05-07 04:30 | 51.88236 | -0.37480 | 539 ft | 2 kts | 72° |
| 2026-05-07 04:31 | 51.88249 | -0.37417 | 539 ft | 7 kts | 72° |
| 2026-05-07 04:31 | 51.88260 | -0.37362 | 539 ft | 9 kts | 72° |
| 2026-05-07 04:31 | 51.88264 | -0.37280 | 539 ft | 8 kts | 122° |
| 2026-05-07 04:31 | 51.88214 | -0.37227 | 539 ft | 10 kts | 160° |
| 2026-05-07 04:32 | 51.88140 | -0.37188 | 539 ft | 13 kts | 162° |
| 2026-05-07 04:32 | 51.88048 | -0.37141 | 539 ft | 15 kts | 162° |
| 2026-05-07 04:32 | 51.87938 | -0.37083 | 539 ft | 18 kts | 162° |
| 2026-05-07 04:32 | 51.87820 | -0.37020 | 539 ft | 18 kts | 162° |
| 2026-05-07 04:33 | 51.87706 | -0.36960 | 539 ft | 17 kts | 162° |
| 2026-05-07 04:33 | 51.87621 | -0.37019 | 539 ft | 16 kts | 254° |
| 2026-05-07 04:33 | 51.87591 | -0.37195 | 540 ft | 17 kts | 255° |
| 2026-05-07 04:33 | 51.87584 | -0.37383 | 541 ft | 17 kts | 273° |
| 2026-05-07 04:34 | 51.87508 | -0.37531 | 541 ft | 18 kts | 245° |
| 2026-05-07 04:34 | 51.87478 | -0.37698 | 542 ft | 13 kts | 255° |
| 2026-05-07 04:34 | 51.87453 | -0.37845 | 542 ft | 14 kts | 252° |
| 2026-05-07 04:34 | 51.87421 | -0.37998 | 542 ft | 15 kts | 238° |
| 2026-05-07 04:35 | 51.87336 | -0.38093 | 539 ft | 15 kts | 206° |
| 2026-05-07 04:35 | 51.87250 | -0.38130 | 537 ft | 11 kts | 225° |
| 2026-05-07 04:35 | 51.87211 | -0.38243 | 533 ft | 12 kts | 224° |
| 2026-05-07 04:35 | 51.87217 | -0.38314 | 532 ft | 10 kts | 52° |
| 2026-05-07 04:36 | 51.87223 | -0.38229 | 533 ft | 0 kts | 81° |
| 2026-05-07 04:36 | 51.87227 | -0.38210 | 534 ft | 6 kts | 72° |
| 2026-05-07 04:36 | 51.87291 | -0.37839 | 543 ft | 67 kts | 75° |
| 2026-05-07 04:36 | 51.87476 | -0.36771 | 546 ft | 129 kts | 74° |
| 2026-05-07 04:37 | 51.87752 | -0.35193 | 848 ft | 146 kts | 75° |
| 2026-05-07 04:37 | 51.87994 | -0.33642 | 1468 ft | 141 kts | 75° |
| 2026-05-07 04:37 | 51.88241 | -0.32110 | 1998 ft | 139 kts | 74° |
| 2026-05-07 04:37 | 51.88507 | -0.30600 | 2268 ft | 145 kts | 73° |
| 2026-05-07 04:38 | 51.88801 | -0.28955 | 2426 ft | 159 kts | 74° |
| 2026-05-07 04:38 | 51.89116 | -0.27164 | 2713 ft | 171 kts | 74° |
| 2026-05-07 04:38 | 51.89445 | -0.25236 | 3057 ft | 184 kts | 75° |
| 2026-05-07 04:38 | 51.89617 | -0.23093 | 3367 ft | 203 kts | 98° |
| 2026-05-07 04:39 | 51.89014 | -0.20960 | 3712 ft | 219 kts | 132° |
| 2026-05-07 04:39 | 51.87687 | -0.19546 | 3984 ft | 242 kts | 156° |
| 2026-05-07 04:39 | 51.86066 | -0.18455 | 4393 ft | 260 kts | 158° |
| 2026-05-07 04:39 | 51.84370 | -0.17327 | 5051 ft | 266 kts | 157° |
| 2026-05-07 04:40 | 51.82653 | -0.16151 | 5791 ft | 270 kts | 156° |
| 2026-05-07 04:40 | 51.80923 | -0.14937 | 6519 ft | 273 kts | 156° |
| 2026-05-07 04:40 | 51.79174 | -0.13696 | 7230 ft | 276 kts | 156° |
| 2026-05-07 04:40 | 51.77414 | -0.12402 | 7915 ft | 280 kts | 152° |
| 2026-05-07 04:41 | 51.75902 | -0.10422 | 8560 ft | 283 kts | 129° |
| 2026-05-07 04:41 | 51.75038 | -0.07588 | 9176 ft | 286 kts | 99° |
| 2026-05-07 04:41 | 51.75104 | -0.04400 | 9792 ft | 287 kts | 78° |
| 2026-05-07 04:41 | 51.75488 | -0.01285 | 10304 ft | 296 kts | 78° |
| 2026-05-07 04:42 | 51.75880 | 0.02061 | 10599 ft | 312 kts | 79° |
| 2026-05-07 04:42 | 51.76246 | 0.05618 | 10866 ft | 329 kts | 81° |
| 2026-05-07 04:42 | 51.76591 | 0.09325 | 11333 ft | 337 kts | 81° |
| 2026-05-07 04:42 | 51.76922 | 0.13097 | 11957 ft | 341 kts | 81° |
| 2026-05-07 04:43 | 51.77241 | 0.16906 | 12583 ft | 344 kts | 82° |
| 2026-05-07 04:43 | 51.77560 | 0.20753 | 13206 ft | 348 kts | 82° |
| 2026-05-07 04:43 | 51.77879 | 0.24639 | 13826 ft | 350 kts | 82° |
| 2026-05-07 04:43 | 51.78197 | 0.28563 | 14420 ft | 354 kts | 82° |
| 2026-05-07 04:44 | 51.78519 | 0.32525 | 15005 ft | 358 kts | 82° |
| 2026-05-07 04:44 | 51.78839 | 0.36520 | 15593 ft | 361 kts | 82° |
| 2026-05-07 04:44 | 51.79159 | 0.40501 | 16164 ft | 364 kts | 82° |
| 2026-05-07 04:44 | 51.79484 | 0.44568 | 16728 ft | 367 kts | 82° |
| 2026-05-07 04:45 | 51.79811 | 0.48669 | 17262 ft | 370 kts | 82° |
| 2026-05-07 04:45 | 51.80138 | 0.52804 | 17725 ft | 372 kts | 83° |
| 2026-05-07 04:45 | 51.80464 | 0.56957 | 18244 ft | 374 kts | 82° |
| 2026-05-07 04:45 | 51.80791 | 0.61148 | 18724 ft | 378 kts | 82° |
| 2026-05-07 04:46 | 51.81121 | 0.65386 | 19222 ft | 381 kts | 82° |
| 2026-05-07 04:46 | 51.81254 | 0.69668 | 19697 ft | 385 kts | 95° |
| 2026-05-07 04:46 | 51.80652 | 0.73882 | 20161 ft | 388 kts | 111° |
| 2026-05-07 04:46 | 51.79331 | 0.77750 | 20626 ft | 389 kts | 128° |
| 2026-05-07 04:47 | 51.77468 | 0.80818 | 22887 ft | 389 kts | 143° |
| 2026-05-07 04:47 | 51.75142 | 0.83044 | 21418 ft | 391 kts | 159° |
| 2026-05-07 04:47 | 51.72553 | 0.84414 | 21831 ft | 393 kts | 165° |
| 2026-05-07 04:47 | 51.69904 | 0.85602 | 22246 ft | 396 kts | 165° |
| 2026-05-07 04:48 | 51.67240 | 0.86822 | 22664 ft | 399 kts | 165° |
| 2026-05-07 04:48 | 51.64567 | 0.88086 | 23072 ft | 402 kts | 165° |
| 2026-05-07 04:48 | 51.61882 | 0.89379 | 23477 ft | 404 kts | 164° |
| 2026-05-07 04:48 | 51.59178 | 0.90685 | 23868 ft | 407 kts | 164° |
| 2026-05-07 04:49 | 51.56457 | 0.91997 | 24256 ft | 409 kts | 164° |
| 2026-05-07 04:49 | 51.53724 | 0.93310 | 24632 ft | 411 kts | 164° |
| 2026-05-07 04:49 | 51.50975 | 0.94632 | 24992 ft | 414 kts | 164° |
| 2026-05-07 04:49 | 51.48214 | 0.95963 | 25349 ft | 416 kts | 164° |
| 2026-05-07 04:50 | 51.45435 | 0.97304 | 25690 ft | 418 kts | 164° |
| 2026-05-07 04:50 | 51.42644 | 0.98652 | 26033 ft | 420 kts | 164° |
| 2026-05-07 04:50 | 51.39842 | 1.00001 | 26367 ft | 422 kts | 164° |
| 2026-05-07 04:50 | 51.37025 | 1.01354 | 26696 ft | 424 kts | 164° |
| 2026-05-07 04:51 | 51.34192 | 1.02714 | 27005 ft | 426 kts | 164° |
| 2026-05-07 04:51 | 51.31410 | 1.04364 | 27299 ft | 429 kts | 155° |
| 2026-05-07 04:51 | 51.28861 | 1.06857 | 27572 ft | 432 kts | 142° |
| 2026-05-07 04:51 | 51.26712 | 1.10217 | 27842 ft | 435 kts | 129° |
| 2026-05-07 04:52 | 51.24980 | 1.14190 | 28124 ft | 437 kts | 123° |
| 2026-05-07 04:52 | 51.23359 | 1.18299 | 28404 ft | 439 kts | 122° |
| 2026-05-07 04:52 | 51.21731 | 1.22424 | 28679 ft | 441 kts | 123° |
| 2026-05-07 04:52 | 51.20075 | 1.26545 | 28952 ft | 442 kts | 123° |
| 2026-05-07 04:53 | 51.18409 | 1.30670 | 29200 ft | 444 kts | 122° |
| 2026-05-07 04:53 | 51.16973 | 1.35029 | 29449 ft | 445 kts | 112° |
| 2026-05-07 04:53 | 51.16094 | 1.39754 | 29674 ft | 446 kts | 99° |
| 2026-05-07 04:53 | 51.15751 | 1.44673 | 29902 ft | 447 kts | 94° |
| 2026-05-07 04:54 | 51.15545 | 1.49622 | 30121 ft | 449 kts | 93° |
| 2026-05-07 04:54 | 51.15341 | 1.54602 | 30331 ft | 451 kts | 93° |
| 2026-05-07 04:54 | 51.15119 | 1.59590 | 30545 ft | 453 kts | 94° |
| 2026-05-07 04:54 | 51.14877 | 1.64602 | 30753 ft | 454 kts | 94° |
| 2026-05-07 04:55 | 51.14628 | 1.69619 | 30954 ft | 455 kts | 94° |
| 2026-05-07 04:55 | 51.14380 | 1.74588 | 31139 ft | 457 kts | 94° |
| 2026-05-07 04:55 | 51.14125 | 1.79643 | 31337 ft | 459 kts | 94° |
| 2026-05-07 04:55 | 51.13868 | 1.84707 | 31521 ft | 460 kts | 94° |
| 2026-05-07 04:56 | 51.13607 | 1.89789 | 31705 ft | 461 kts | 94° |
| 2026-05-07 04:56 | 51.13344 | 1.94885 | 31936 ft | 461 kts | 94° |
| 2026-05-07 04:56 | 51.13078 | 1.99965 | 32165 ft | 461 kts | 94° |
| 2026-05-07 04:56 | 51.12810 | 2.05046 | 32377 ft | 460 kts | 94° |
| 2026-05-07 04:57 | 51.12539 | 2.10120 | 32594 ft | 460 kts | 94° |
| 2026-05-07 04:57 | 51.12267 | 2.15193 | 32775 ft | 459 kts | 94° |
| 2026-05-07 04:57 | 51.11993 | 2.20260 | 32958 ft | 460 kts | 94° |
| 2026-05-07 04:57 | 51.11718 | 2.25318 | 33162 ft | 459 kts | 94° |
| 2026-05-07 04:58 | 51.11440 | 2.30375 | 33328 ft | 459 kts | 95° |
| 2026-05-07 04:58 | 51.11161 | 2.35433 | 33500 ft | 458 kts | 95° |
| 2026-05-07 04:58 | 51.10880 | 2.40481 | 33668 ft | 458 kts | 95° |
| 2026-05-07 04:58 | 51.10595 | 2.45523 | 33831 ft | 458 kts | 95° |
| 2026-05-07 04:59 | 51.10305 | 2.50563 | 33981 ft | 457 kts | 95° |
| 2026-05-07 04:59 | 51.10014 | 2.55601 | 34128 ft | 457 kts | 95° |
| 2026-05-07 04:59 | 51.09724 | 2.60636 | 34267 ft | 457 kts | 95° |
| 2026-05-07 04:59 | 51.09322 | 2.65643 | 34403 ft | 457 kts | 101° |
| 2026-05-07 05:00 | 51.08534 | 2.70539 | 34520 ft | 457 kts | 105° |
| 2026-05-07 05:00 | 51.07649 | 2.75390 | 34632 ft | 457 kts | 106° |
| 2026-05-07 05:00 | 51.06755 | 2.80236 | 34737 ft | 457 kts | 106° |
| 2026-05-07 05:00 | 51.05865 | 2.85086 | 34842 ft | 457 kts | 106° |
| 2026-05-07 05:01 | 51.04977 | 2.89940 | 34951 ft | 457 kts | 106° |
| 2026-05-07 05:01 | 51.04088 | 2.94793 | 35050 ft | 458 kts | 106° |
| 2026-05-07 05:01 | 51.02308 | 3.04505 | 35041 ft | 458 kts | 106° |
| 2026-05-07 05:02 | 51.00523 | 3.14195 | 35023 ft | 456 kts | 106° |
| 2026-05-07 05:02 | 50.98732 | 3.23868 | 35019 ft | 457 kts | 106° |
| 2026-05-07 05:03 | 50.96934 | 3.33531 | 35030 ft | 457 kts | 106° |
| 2026-05-07 05:03 | 50.95128 | 3.43190 | 35028 ft | 457 kts | 106° |
| 2026-05-07 05:04 | 50.93314 | 3.52828 | 35024 ft | 456 kts | 107° |
| 2026-05-07 05:04 | 50.91508 | 3.62385 | 35016 ft | 456 kts | 107° |
| 2026-05-07 05:05 | 50.89681 | 3.72002 | 35016 ft | 456 kts | 107° |
| 2026-05-07 05:05 | 50.87847 | 3.81607 | 35022 ft | 455 kts | 107° |
| 2026-05-07 05:06 | 50.86010 | 3.91190 | 35020 ft | 455 kts | 107° |
| 2026-05-07 05:06 | 50.84161 | 4.00767 | 35026 ft | 455 kts | 107° |
| 2026-05-07 05:07 | 50.82307 | 4.10323 | 35019 ft | 454 kts | 107° |
| 2026-05-07 05:07 | 50.80446 | 4.19867 | 35022 ft | 454 kts | 107° |
| 2026-05-07 05:08 | 50.78583 | 4.29406 | 35022 ft | 454 kts | 107° |
| 2026-05-07 05:08 | 50.76709 | 4.38940 | 35022 ft | 454 kts | 107° |
| 2026-05-07 05:09 | 50.74823 | 4.48461 | 35020 ft | 454 kts | 107° |
| 2026-05-07 05:09 | 50.72934 | 4.57978 | 35024 ft | 454 kts | 107° |
| 2026-05-07 05:10 | 50.71036 | 4.67483 | 35024 ft | 453 kts | 108° |
| 2026-05-07 05:10 | 50.69135 | 4.76956 | 35024 ft | 453 kts | 108° |
| 2026-05-07 05:11 | 50.67197 | 4.86412 | 35028 ft | 453 kts | 111° |
| 2026-05-07 05:11 | 50.64043 | 4.94859 | 35022 ft | 452 kts | 133° |
| 2026-05-07 05:12 | 50.59585 | 5.01823 | 35032 ft | 451 kts | 137° |
| 2026-05-07 05:12 | 50.55071 | 5.08691 | 35024 ft | 451 kts | 136° |
| 2026-05-07 05:13 | 50.50587 | 5.15592 | 35025 ft | 451 kts | 136° |
| 2026-05-07 05:13 | 50.46105 | 5.22490 | 35020 ft | 451 kts | 136° |
| 2026-05-07 05:14 | 50.41625 | 5.29363 | 35021 ft | 450 kts | 136° |
| 2026-05-07 05:14 | 50.37145 | 5.36218 | 35017 ft | 450 kts | 136° |
| 2026-05-07 05:15 | 50.32667 | 5.43050 | 35019 ft | 450 kts | 136° |
| 2026-05-07 05:15 | 50.28185 | 5.49867 | 35021 ft | 449 kts | 136° |
| 2026-05-07 05:16 | 50.23703 | 5.56670 | 35014 ft | 449 kts | 136° |
| 2026-05-07 05:16 | 50.19223 | 5.63450 | 35001 ft | 449 kts | 136° |
| 2026-05-07 05:17 | 50.14736 | 5.70219 | 35005 ft | 448 kts | 136° |
| 2026-05-07 05:17 | 50.10249 | 5.76970 | 34998 ft | 448 kts | 136° |
| 2026-05-07 05:18 | 50.06308 | 5.84476 | 34992 ft | 451 kts | 122° |
| 2026-05-07 05:18 | 50.03714 | 5.91484 | 34998 ft | 450 kts | 120° |
| 2026-05-07 05:19 | 50.00109 | 6.01293 | 34982 ft | 449 kts | 121° |
| 2026-05-07 05:19 | 49.96972 | 6.09693 | 34977 ft | 449 kts | 121° |
| 2026-05-07 05:20 | 49.94337 | 6.16722 | 34966 ft | 449 kts | 121° |
| 2026-05-07 05:20 | 49.91189 | 6.25099 | 34960 ft | 449 kts | 121° |
| 2026-05-07 05:21 | 49.86451 | 6.37648 | 34959 ft | 449 kts | 121° |
| 2026-05-07 05:22 | 49.83283 | 6.46005 | 34965 ft | 450 kts | 121° |
| 2026-05-07 05:22 | 49.80109 | 6.54352 | 34960 ft | 450 kts | 121° |
| 2026-05-07 05:23 | 49.76930 | 6.62686 | 34959 ft | 450 kts | 121° |
| 2026-05-07 05:23 | 49.73742 | 6.71015 | 34961 ft | 450 kts | 122° |
| 2026-05-07 05:24 | 49.70574 | 6.79269 | 34952 ft | 450 kts | 122° |
| 2026-05-07 05:24 | 49.67373 | 6.87569 | 34957 ft | 450 kts | 122° |
| 2026-05-07 05:25 | 49.64169 | 6.95863 | 34962 ft | 450 kts | 122° |
| 2026-05-07 05:25 | 49.60964 | 7.04139 | 34960 ft | 449 kts | 122° |
| 2026-05-07 05:26 | 49.57751 | 7.12407 | 34960 ft | 449 kts | 122° |
| 2026-05-07 05:26 | 49.54532 | 7.20661 | 34952 ft | 449 kts | 122° |
| 2026-05-07 05:27 | 49.51308 | 7.28898 | 34951 ft | 449 kts | 123° |
| 2026-05-07 05:27 | 49.48081 | 7.37118 | 34952 ft | 449 kts | 123° |
| 2026-05-07 05:28 | 49.44849 | 7.45330 | 34951 ft | 449 kts | 123° |
| 2026-05-07 05:28 | 49.41612 | 7.53523 | 34968 ft | 448 kts | 123° |
| 2026-05-07 05:29 | 49.38369 | 7.61707 | 34968 ft | 449 kts | 123° |
| 2026-05-07 05:29 | 49.35124 | 7.69874 | 34968 ft | 448 kts | 123° |
| 2026-05-07 05:30 | 49.31875 | 7.78030 | 34969 ft | 448 kts | 123° |
| 2026-05-07 05:30 | 49.28616 | 7.86182 | 34970 ft | 448 kts | 123° |
| 2026-05-07 05:31 | 49.25351 | 7.94319 | 34973 ft | 449 kts | 123° |
| 2026-05-07 05:31 | 49.22078 | 8.02455 | 34973 ft | 449 kts | 124° |
| 2026-05-07 05:32 | 49.18807 | 8.10563 | 34970 ft | 448 kts | 124° |
| 2026-05-07 05:32 | 49.15529 | 8.18656 | 34970 ft | 448 kts | 124° |
| 2026-05-07 05:33 | 49.12245 | 8.26745 | 34969 ft | 448 kts | 124° |
| 2026-05-07 05:33 | 49.08957 | 8.34821 | 34976 ft | 448 kts | 124° |
| 2026-05-07 05:34 | 49.05659 | 8.42895 | 34980 ft | 448 kts | 124° |
| 2026-05-07 05:34 | 49.02356 | 8.50952 | 34980 ft | 448 kts | 125° |
| 2026-05-07 05:35 | 48.98804 | 8.58711 | 34978 ft | 444 kts | 136° |
| 2026-05-07 05:35 | 48.94146 | 8.64777 | 34973 ft | 440 kts | 145° |
| 2026-05-07 05:36 | 48.89351 | 8.70458 | 34971 ft | 440 kts | 144° |
| 2026-05-07 05:36 | 48.84551 | 8.76216 | 34971 ft | 440 kts | 144° |
| 2026-05-07 05:37 | 48.79753 | 8.81978 | 34976 ft | 439 kts | 144° |
| 2026-05-07 05:37 | 48.74959 | 8.87721 | 34986 ft | 440 kts | 145° |
| 2026-05-07 05:38 | 48.70157 | 8.93460 | 34981 ft | 439 kts | 145° |
| 2026-05-07 05:38 | 48.65360 | 8.99181 | 34983 ft | 439 kts | 145° |
| 2026-05-07 05:39 | 48.60559 | 9.04891 | 34991 ft | 439 kts | 145° |
| 2026-05-07 05:39 | 48.55760 | 9.10582 | 34979 ft | 438 kts | 145° |
| 2026-05-07 05:40 | 48.50959 | 9.16262 | 34980 ft | 439 kts | 145° |
| 2026-05-07 05:40 | 48.46153 | 9.21936 | 34969 ft | 439 kts | 146° |
| 2026-05-07 05:41 | 48.41346 | 9.27597 | 34967 ft | 438 kts | 146° |
| 2026-05-07 05:41 | 48.36549 | 9.33230 | 34961 ft | 438 kts | 146° |
| 2026-05-07 05:42 | 48.31749 | 9.38853 | 34956 ft | 437 kts | 146° |
| 2026-05-07 05:42 | 48.26948 | 9.44462 | 34950 ft | 437 kts | 146° |
| 2026-05-07 05:43 | 48.22211 | 9.50206 | 34953 ft | 438 kts | 145° |
| 2026-05-07 05:43 | 48.17509 | 9.56000 | 34949 ft | 438 kts | 145° |
| 2026-05-07 05:44 | 48.12804 | 9.61783 | 34952 ft | 437 kts | 145° |
| 2026-05-07 05:44 | 48.08100 | 9.67550 | 34946 ft | 437 kts | 145° |
| 2026-05-07 05:45 | 48.03429 | 9.73261 | 34949 ft | 436 kts | 146° |
| 2026-05-07 05:45 | 47.98726 | 9.78998 | 34949 ft | 436 kts | 146° |
| 2026-05-07 05:46 | 47.94022 | 9.84722 | 34961 ft | 436 kts | 146° |
| 2026-05-07 05:46 | 47.89318 | 9.90430 | 34960 ft | 436 kts | 146° |
| 2026-05-07 05:47 | 47.84620 | 9.96118 | 34962 ft | 435 kts | 146° |
| 2026-05-07 05:47 | 47.79914 | 10.01804 | 34969 ft | 435 kts | 146° |
| 2026-05-07 05:48 | 47.75211 | 10.07470 | 34971 ft | 435 kts | 146° |
| 2026-05-07 05:48 | 47.70503 | 10.13129 | 34970 ft | 435 kts | 146° |
| 2026-05-07 05:49 | 47.65799 | 10.18771 | 34973 ft | 435 kts | 146° |
| 2026-05-07 05:49 | 47.61087 | 10.24410 | 34973 ft | 435 kts | 146° |
| 2026-05-07 05:50 | 47.56371 | 10.30015 | 34970 ft | 434 kts | 148° |
| 2026-05-07 05:50 | 47.51406 | 10.35005 | 34977 ft | 431 kts | 152° |
| 2026-05-07 05:51 | 47.46396 | 10.39846 | 34978 ft | 430 kts | 152° |
| 2026-05-07 05:51 | 47.41401 | 10.44680 | 34970 ft | 429 kts | 152° |
| 2026-05-07 05:52 | 47.36401 | 10.49512 | 34981 ft | 430 kts | 152° |
| 2026-05-07 05:52 | 47.31414 | 10.54324 | 34972 ft | 428 kts | 152° |
| 2026-05-07 05:53 | 47.26481 | 10.59249 | 34970 ft | 429 kts | 150° |
| 2026-05-07 05:53 | 47.21657 | 10.64324 | 34974 ft | 429 kts | 150° |
| 2026-05-07 05:54 | 47.16805 | 10.69421 | 34974 ft | 429 kts | 150° |
| 2026-05-07 05:54 | 47.11949 | 10.74502 | 34969 ft | 428 kts | 150° |
| 2026-05-07 05:55 | 47.07098 | 10.79564 | 34985 ft | 427 kts | 150° |
| 2026-05-07 05:55 | 47.02251 | 10.84607 | 34982 ft | 426 kts | 150° |
| 2026-05-07 05:56 | 46.97414 | 10.89632 | 34985 ft | 426 kts | 151° |
| 2026-05-07 05:56 | 46.92574 | 10.94650 | 34980 ft | 426 kts | 151° |
| 2026-05-07 05:57 | 46.87730 | 10.99662 | 34980 ft | 426 kts | 151° |
| 2026-05-07 05:57 | 46.82891 | 11.04661 | 34987 ft | 426 kts | 150° |
| 2026-05-07 05:58 | 46.78448 | 11.10542 | 34974 ft | 435 kts | 141° |
| 2026-05-07 05:58 | 46.74271 | 11.16928 | 34973 ft | 435 kts | 141° |
| 2026-05-07 05:59 | 46.70074 | 11.23288 | 34973 ft | 435 kts | 141° |
| 2026-05-07 05:59 | 46.65869 | 11.29619 | 34971 ft | 435 kts | 141° |
| 2026-05-07 06:00 | 46.61663 | 11.35932 | 34972 ft | 434 kts | 141° |
| 2026-05-07 06:00 | 46.57463 | 11.42221 | 34968 ft | 433 kts | 141° |
| 2026-05-07 06:01 | 46.53256 | 11.48502 | 34968 ft | 434 kts | 141° |
| 2026-05-07 06:01 | 46.49047 | 11.54778 | 34967 ft | 435 kts | 142° |
| 2026-05-07 06:02 | 46.44813 | 11.61071 | 34978 ft | 435 kts | 142° |
| 2026-05-07 06:02 | 46.40616 | 11.67298 | 34980 ft | 434 kts | 142° |
| 2026-05-07 06:03 | 46.36396 | 11.73542 | 34985 ft | 434 kts | 142° |
| 2026-05-07 06:03 | 46.32169 | 11.79784 | 34993 ft | 434 kts | 142° |
| 2026-05-07 06:04 | 46.27939 | 11.86013 | 34981 ft | 435 kts | 142° |
| 2026-05-07 06:04 | 46.23698 | 11.92240 | 34999 ft | 434 kts | 142° |
| 2026-05-07 06:05 | 46.19461 | 11.98451 | 34984 ft | 434 kts | 142° |
| 2026-05-07 06:05 | 46.15225 | 12.04648 | 34987 ft | 434 kts | 142° |
| 2026-05-07 06:06 | 46.10986 | 12.10833 | 34986 ft | 433 kts | 142° |
| 2026-05-07 06:06 | 46.06750 | 12.16999 | 34975 ft | 433 kts | 143° |
| 2026-05-07 06:07 | 46.03227 | 12.22110 | 34963 ft | 433 kts | 142° |
| 2026-05-07 06:07 | 45.98256 | 12.29286 | 34952 ft | 434 kts | 143° |
| 2026-05-07 06:08 | 45.94721 | 12.34384 | 34950 ft | 433 kts | 142° |
| 2026-05-07 06:08 | 45.90470 | 12.40528 | 34954 ft | 434 kts | 143° |
| 2026-05-07 06:09 | 45.86225 | 12.46633 | 34964 ft | 431 kts | 143° |
| 2026-05-07 06:09 | 45.81999 | 12.52731 | 34971 ft | 431 kts | 142° |
| 2026-05-07 06:10 | 45.77754 | 12.58822 | 34970 ft | 432 kts | 142° |
| 2026-05-07 06:10 | 45.73495 | 12.64905 | 34962 ft | 432 kts | 143° |
| 2026-05-07 06:11 | 45.69237 | 12.70979 | 34962 ft | 433 kts | 143° |
| 2026-05-07 06:11 | 45.64963 | 12.77056 | 34964 ft | 433 kts | 142° |
| 2026-05-07 06:12 | 45.60685 | 12.83130 | 34963 ft | 433 kts | 143° |
| 2026-05-07 06:12 | 45.56423 | 12.89140 | 34956 ft | 434 kts | 143° |
| 2026-05-07 06:13 | 45.52139 | 12.95210 | 34960 ft | 434 kts | 142° |
| 2026-05-07 06:13 | 45.47849 | 13.01272 | 34957 ft | 434 kts | 142° |
| 2026-05-07 06:14 | 45.43555 | 13.07327 | 34964 ft | 435 kts | 142° |
| 2026-05-07 06:14 | 45.39250 | 13.13376 | 34970 ft | 435 kts | 143° |
| 2026-05-07 06:15 | 45.34931 | 13.19407 | 34970 ft | 435 kts | 142° |
| 2026-05-07 06:15 | 45.30596 | 13.25403 | 34970 ft | 433 kts | 145° |
| 2026-05-07 06:16 | 45.26123 | 13.31133 | 34970 ft | 433 kts | 145° |
| 2026-05-07 06:16 | 45.21639 | 13.36854 | 34971 ft | 434 kts | 145° |
| 2026-05-07 06:17 | 45.17144 | 13.42566 | 34969 ft | 434 kts | 145° |
| 2026-05-07 06:17 | 45.12648 | 13.48265 | 34970 ft | 434 kts | 145° |
| 2026-05-07 06:18 | 45.08149 | 13.53956 | 34977 ft | 434 kts | 145° |
| 2026-05-07 06:18 | 45.03626 | 13.59620 | 34978 ft | 435 kts | 145° |
| 2026-05-07 06:19 | 44.99107 | 13.65315 | 34982 ft | 435 kts | 145° |
| 2026-05-07 06:19 | 44.94590 | 13.71017 | 34988 ft | 436 kts | 144° |
| 2026-05-07 06:20 | 44.90061 | 13.76719 | 34996 ft | 436 kts | 145° |
| 2026-05-07 06:20 | 44.85526 | 13.82410 | 34987 ft | 436 kts | 144° |
| 2026-05-07 06:21 | 44.81010 | 13.88055 | 34992 ft | 437 kts | 145° |
| 2026-05-07 06:21 | 44.76461 | 13.93730 | 34997 ft | 437 kts | 145° |
| 2026-05-07 06:22 | 44.71898 | 13.99386 | 34992 ft | 437 kts | 144° |
| 2026-05-07 06:22 | 44.65089 | 14.07833 | 34999 ft | 438 kts | 144° |
| 2026-05-07 06:23 | 44.60474 | 14.13540 | 34994 ft | 439 kts | 144° |
| 2026-05-07 06:23 | 44.55891 | 14.19197 | 34992 ft | 439 kts | 144° |
| 2026-05-07 06:24 | 44.51302 | 14.24850 | 35001 ft | 439 kts | 144° |
| 2026-05-07 06:24 | 44.46706 | 14.30495 | 35003 ft | 439 kts | 144° |
| 2026-05-07 06:25 | 44.42108 | 14.36131 | 34998 ft | 439 kts | 144° |
| 2026-05-07 06:25 | 44.37506 | 14.41758 | 35004 ft | 439 kts | 144° |
| 2026-05-07 06:26 | 44.32904 | 14.47382 | 34999 ft | 439 kts | 144° |
| 2026-05-07 06:26 | 44.28301 | 14.52991 | 35001 ft | 439 kts | 144° |
| 2026-05-07 06:27 | 44.23699 | 14.58586 | 35002 ft | 439 kts | 144° |
| 2026-05-07 06:27 | 44.19098 | 14.64167 | 35004 ft | 438 kts | 144° |
| 2026-05-07 06:28 | 44.14499 | 14.69732 | 35009 ft | 438 kts | 145° |
| 2026-05-07 06:28 | 44.09897 | 14.75287 | 35011 ft | 438 kts | 144° |
| 2026-05-07 06:29 | 44.05306 | 14.80825 | 35022 ft | 437 kts | 145° |
| 2026-05-07 06:29 | 44.00711 | 14.86348 | 35018 ft | 437 kts | 145° |
| 2026-05-07 06:30 | 43.96140 | 14.91838 | 35020 ft | 438 kts | 144° |
| 2026-05-07 06:30 | 43.91525 | 14.97356 | 35020 ft | 438 kts | 144° |
| 2026-05-07 06:31 | 43.86905 | 15.02866 | 35017 ft | 438 kts | 144° |
| 2026-05-07 06:31 | 43.82291 | 15.08371 | 35026 ft | 437 kts | 144° |
| 2026-05-07 06:32 | 43.77678 | 15.13869 | 35028 ft | 437 kts | 144° |
| 2026-05-07 06:32 | 43.73075 | 15.19335 | 35031 ft | 436 kts | 144° |
| 2026-05-07 06:33 | 43.68467 | 15.24794 | 35030 ft | 436 kts | 144° |
| 2026-05-07 06:33 | 43.63864 | 15.30239 | 35029 ft | 435 kts | 144° |
| 2026-05-07 06:34 | 43.59262 | 15.35667 | 35032 ft | 435 kts | 144° |
| 2026-05-07 06:34 | 43.54655 | 15.41094 | 35029 ft | 435 kts | 144° |
| 2026-05-07 06:35 | 43.50053 | 15.46502 | 35034 ft | 434 kts | 144° |
| 2026-05-07 06:35 | 43.45454 | 15.51895 | 35041 ft | 434 kts | 144° |
| 2026-05-07 06:36 | 43.40855 | 15.57274 | 35041 ft | 434 kts | 144° |
| 2026-05-07 06:36 | 43.36246 | 15.62644 | 35040 ft | 434 kts | 144° |
| 2026-05-07 06:37 | 43.31640 | 15.68007 | 35039 ft | 434 kts | 144° |
| 2026-05-07 06:37 | 43.27039 | 15.73361 | 35040 ft | 434 kts | 144° |
| 2026-05-07 06:38 | 43.22430 | 15.78719 | 35048 ft | 434 kts | 144° |
| 2026-05-07 06:38 | 43.17813 | 15.84071 | 35051 ft | 434 kts | 144° |
| 2026-05-07 06:39 | 43.13200 | 15.89400 | 35052 ft | 434 kts | 144° |
| 2026-05-07 06:39 | 43.08616 | 15.94688 | 35049 ft | 434 kts | 144° |
| 2026-05-07 06:40 | 43.03997 | 16.00004 | 35051 ft | 434 kts | 144° |
| 2026-05-07 06:40 | 42.99385 | 16.05303 | 35050 ft | 432 kts | 145° |
| 2026-05-07 06:41 | 42.94785 | 16.10583 | 35049 ft | 432 kts | 145° |
| 2026-05-07 06:41 | 42.90187 | 16.15846 | 35050 ft | 432 kts | 144° |
| 2026-05-07 06:42 | 42.85579 | 16.21102 | 35044 ft | 431 kts | 145° |
| 2026-05-07 06:42 | 42.80979 | 16.26347 | 35042 ft | 431 kts | 145° |
| 2026-05-07 06:43 | 42.76378 | 16.31581 | 35041 ft | 431 kts | 145° |
| 2026-05-07 06:43 | 42.71774 | 16.36805 | 35059 ft | 431 kts | 145° |
| 2026-05-07 06:44 | 42.67170 | 16.42008 | 35061 ft | 431 kts | 145° |
| 2026-05-07 06:44 | 42.62565 | 16.47211 | 35061 ft | 431 kts | 145° |
| 2026-05-07 06:45 | 42.57960 | 16.52405 | 35062 ft | 430 kts | 145° |
| 2026-05-07 06:45 | 42.53355 | 16.57593 | 35064 ft | 430 kts | 145° |
| 2026-05-07 06:46 | 42.48743 | 16.62775 | 35062 ft | 430 kts | 145° |
| 2026-05-07 06:46 | 42.44134 | 16.67944 | 35061 ft | 430 kts | 145° |
| 2026-05-07 06:47 | 42.39521 | 16.73107 | 35061 ft | 430 kts | 145° |
| 2026-05-07 06:47 | 42.34908 | 16.78261 | 35060 ft | 430 kts | 145° |
| 2026-05-07 06:48 | 42.30296 | 16.83408 | 35068 ft | 430 kts | 145° |
| 2026-05-07 06:48 | 42.25684 | 16.88541 | 35077 ft | 430 kts | 145° |
| 2026-05-07 06:49 | 42.21071 | 16.93666 | 35087 ft | 429 kts | 146° |
| 2026-05-07 06:49 | 42.16463 | 16.98773 | 35094 ft | 428 kts | 146° |
| 2026-05-07 06:50 | 42.11853 | 17.03871 | 35094 ft | 428 kts | 146° |
| 2026-05-07 06:50 | 42.07247 | 17.08955 | 35083 ft | 428 kts | 146° |
| 2026-05-07 06:51 | 42.02639 | 17.14029 | 35093 ft | 428 kts | 146° |
| 2026-05-07 06:51 | 41.98031 | 17.19097 | 35088 ft | 428 kts | 146° |
| 2026-05-07 06:52 | 41.93406 | 17.24160 | 35088 ft | 428 kts | 147° |
| 2026-05-07 06:52 | 41.88528 | 17.28561 | 35086 ft | 424 kts | 153° |
| 2026-05-07 06:53 | 41.83551 | 17.32806 | 35096 ft | 424 kts | 153° |
| 2026-05-07 06:53 | 41.78583 | 17.37064 | 35095 ft | 424 kts | 153° |
| 2026-05-07 06:54 | 41.73617 | 17.41318 | 35083 ft | 423 kts | 153° |
| 2026-05-07 06:54 | 41.68658 | 17.45560 | 35096 ft | 423 kts | 153° |
| 2026-05-07 06:55 | 41.63701 | 17.49792 | 35094 ft | 423 kts | 153° |
| 2026-05-07 06:55 | 41.58738 | 17.54023 | 35089 ft | 423 kts | 153° |
| 2026-05-07 06:56 | 41.54607 | 17.57534 | 35094 ft | 423 kts | 153° |
| 2026-05-07 06:56 | 41.49636 | 17.61751 | 35085 ft | 424 kts | 153° |
| 2026-05-07 06:57 | 41.44660 | 17.65971 | 35072 ft | 424 kts | 153° |
| 2026-05-07 06:57 | 41.39683 | 17.70181 | 35100 ft | 424 kts | 153° |
| 2026-05-07 06:58 | 41.34707 | 17.74382 | 35112 ft | 424 kts | 153° |
| 2026-05-07 06:58 | 41.29721 | 17.78584 | 35114 ft | 425 kts | 153° |
| 2026-05-07 06:59 | 41.24730 | 17.82786 | 35113 ft | 425 kts | 153° |
| 2026-05-07 06:59 | 41.19727 | 17.86986 | 35114 ft | 426 kts | 153° |
| 2026-05-07 07:00 | 41.14717 | 17.91182 | 35118 ft | 427 kts | 153° |
| 2026-05-07 07:00 | 41.09692 | 17.95384 | 35121 ft | 427 kts | 153° |
| 2026-05-07 07:01 | 41.04657 | 17.99592 | 35115 ft | 428 kts | 153° |
| 2026-05-07 07:01 | 40.99608 | 18.03799 | 35111 ft | 430 kts | 153° |
| 2026-05-07 07:02 | 40.94541 | 18.08017 | 35117 ft | 431 kts | 153° |
| 2026-05-07 07:02 | 40.89464 | 18.12234 | 35114 ft | 432 kts | 153° |
| 2026-05-07 07:03 | 40.84370 | 18.16455 | 35111 ft | 433 kts | 153° |
| 2026-05-07 07:03 | 40.79265 | 18.20680 | 35111 ft | 433 kts | 153° |
| 2026-05-07 07:04 | 40.74182 | 18.24877 | 35110 ft | 434 kts | 153° |
| 2026-05-07 07:04 | 40.69057 | 18.29104 | 35113 ft | 435 kts | 153° |
| 2026-05-07 07:05 | 40.63921 | 18.33332 | 35120 ft | 435 kts | 153° |
| 2026-05-07 07:05 | 40.58780 | 18.37556 | 35119 ft | 436 kts | 153° |
| 2026-05-07 07:06 | 40.53632 | 18.41773 | 35122 ft | 436 kts | 153° |
| 2026-05-07 07:06 | 40.48478 | 18.45992 | 35121 ft | 436 kts | 153° |
| 2026-05-07 07:07 | 40.43322 | 18.50207 | 35122 ft | 436 kts | 153° |
| 2026-05-07 07:07 | 40.38161 | 18.54413 | 35122 ft | 437 kts | 153° |
| 2026-05-07 07:08 | 40.32995 | 18.58616 | 35120 ft | 437 kts | 153° |
| 2026-05-07 07:08 | 40.27826 | 18.62816 | 35121 ft | 437 kts | 153° |
| 2026-05-07 07:09 | 40.22660 | 18.67005 | 35122 ft | 437 kts | 153° |
| 2026-05-07 07:09 | 40.17493 | 18.71186 | 35119 ft | 437 kts | 153° |
| 2026-05-07 07:10 | 40.12315 | 18.75369 | 35120 ft | 438 kts | 153° |
| 2026-05-07 07:10 | 40.07131 | 18.79554 | 35120 ft | 438 kts | 153° |
| 2026-05-07 07:11 | 40.01943 | 18.83732 | 35120 ft | 438 kts | 153° |
| 2026-05-07 07:11 | 39.96743 | 18.87908 | 35114 ft | 441 kts | 154° |
| 2026-05-07 07:12 | 39.91466 | 18.92130 | 35123 ft | 448 kts | 154° |
| 2026-05-07 07:12 | 39.86146 | 18.96389 | 35120 ft | 449 kts | 154° |
| 2026-05-07 07:13 | 39.80986 | 19.01038 | 35117 ft | 458 kts | 142° |
| 2026-05-07 07:13 | 39.76670 | 19.07219 | 35123 ft | 463 kts | 135° |
| 2026-05-07 07:14 | 39.72449 | 19.13545 | 35120 ft | 463 kts | 136° |
| 2026-05-07 07:14 | 39.68216 | 19.19786 | 35120 ft | 464 kts | 136° |
| 2026-05-07 07:15 | 39.63941 | 19.26057 | 35119 ft | 464 kts | 136° |
| 2026-05-07 07:15 | 39.59663 | 19.32320 | 35122 ft | 463 kts | 136° |
| 2026-05-07 07:16 | 39.55390 | 19.38566 | 35113 ft | 463 kts | 136° |
| 2026-05-07 07:16 | 39.51116 | 19.44803 | 35111 ft | 463 kts | 136° |
| 2026-05-07 07:17 | 39.46831 | 19.51035 | 35108 ft | 464 kts | 136° |
| 2026-05-07 07:17 | 39.42539 | 19.57258 | 35110 ft | 463 kts | 136° |
| 2026-05-07 07:18 | 39.38245 | 19.63474 | 35109 ft | 464 kts | 136° |
| 2026-05-07 07:18 | 39.33943 | 19.69698 | 35110 ft | 464 kts | 136° |
| 2026-05-07 07:19 | 39.29626 | 19.75919 | 35111 ft | 466 kts | 136° |
| 2026-05-07 07:19 | 39.25295 | 19.82148 | 35110 ft | 466 kts | 136° |
| 2026-05-07 07:20 | 39.20955 | 19.88392 | 35115 ft | 468 kts | 136° |
| 2026-05-07 07:20 | 39.16603 | 19.94632 | 35120 ft | 469 kts | 137° |
| 2026-05-07 07:21 | 39.12233 | 20.00886 | 35126 ft | 471 kts | 137° |
| 2026-05-07 07:21 | 39.07846 | 20.07153 | 35128 ft | 471 kts | 136° |
| 2026-05-07 07:22 | 39.03445 | 20.13420 | 35133 ft | 473 kts | 136° |
| 2026-05-07 07:22 | 38.99029 | 20.19711 | 35133 ft | 475 kts | 136° |
| 2026-05-07 07:23 | 38.94699 | 20.26056 | 35143 ft | 477 kts | 135° |
| 2026-05-07 07:23 | 38.90403 | 20.32552 | 35139 ft | 478 kts | 135° |
| 2026-05-07 07:24 | 38.86078 | 20.39060 | 35136 ft | 480 kts | 135° |
| 2026-05-07 07:24 | 38.81764 | 20.45546 | 35136 ft | 476 kts | 135° |
| 2026-05-07 07:25 | 38.75329 | 20.55181 | 35139 ft | 474 kts | 135° |
| 2026-05-07 07:26 | 38.71001 | 20.61656 | 35151 ft | 482 kts | 135° |
| 2026-05-07 07:26 | 38.66626 | 20.68183 | 35138 ft | 483 kts | 135° |
| 2026-05-07 07:27 | 38.62245 | 20.74702 | 35140 ft | 483 kts | 135° |
| 2026-05-07 07:27 | 38.57866 | 20.81209 | 35141 ft | 482 kts | 135° |
| 2026-05-07 07:28 | 38.53508 | 20.87671 | 35137 ft | 478 kts | 135° |
| 2026-05-07 07:28 | 38.49174 | 20.94079 | 35138 ft | 475 kts | 135° |
| 2026-05-07 07:29 | 38.44844 | 21.00466 | 35143 ft | 478 kts | 135° |
| 2026-05-07 07:29 | 38.40461 | 21.06925 | 35147 ft | 483 kts | 135° |
| 2026-05-07 07:30 | 38.36060 | 21.13400 | 35145 ft | 484 kts | 135° |
| 2026-05-07 07:30 | 38.31657 | 21.19887 | 35140 ft | 483 kts | 135° |
| 2026-05-07 07:31 | 38.27248 | 21.26324 | 35143 ft | 481 kts | 135° |
| 2026-05-07 07:31 | 38.22861 | 21.32703 | 35141 ft | 477 kts | 135° |
| 2026-05-07 07:32 | 38.18518 | 21.39065 | 35144 ft | 477 kts | 135° |
| 2026-05-07 07:32 | 38.14633 | 21.45999 | 35150 ft | 490 kts | 120° |
| 2026-05-07 07:33 | 38.11628 | 21.53782 | 35143 ft | 491 kts | 118° |
| 2026-05-07 07:33 | 38.08648 | 21.61587 | 35141 ft | 492 kts | 118° |
| 2026-05-07 07:34 | 38.05620 | 21.69369 | 35139 ft | 491 kts | 118° |
| 2026-05-07 07:34 | 38.02614 | 21.77093 | 35023 ft | 483 kts | 118° |
| 2026-05-07 07:34 | 38.01124 | 21.80930 | 34166 ft | 487 kts | 118° |
| 2026-05-07 07:35 | 37.99646 | 21.84735 | 33493 ft | 486 kts | 118° |
| 2026-05-07 07:35 | 37.98157 | 21.88542 | 33026 ft | 478 kts | 118° |
| 2026-05-07 07:35 | 37.96684 | 21.92289 | 32530 ft | 472 kts | 118° |
| 2026-05-07 07:35 | 37.95234 | 21.95995 | 32032 ft | 466 kts | 118° |
| 2026-05-07 07:36 | 37.93797 | 21.99648 | 31533 ft | 460 kts | 118° |
| 2026-05-07 07:36 | 37.92383 | 22.03247 | 31032 ft | 454 kts | 118° |
| 2026-05-07 07:36 | 37.90981 | 22.06794 | 30504 ft | 448 kts | 118° |
| 2026-05-07 07:36 | 37.89595 | 22.10292 | 30021 ft | 441 kts | 118° |
| 2026-05-07 07:37 | 37.88230 | 22.13745 | 29510 ft | 435 kts | 118° |
| 2026-05-07 07:37 | 37.86891 | 22.17159 | 28898 ft | 432 kts | 118° |
| 2026-05-07 07:37 | 37.85550 | 22.20556 | 28260 ft | 431 kts | 118° |
| 2026-05-07 07:37 | 37.84211 | 22.23929 | 27705 ft | 426 kts | 118° |
| 2026-05-07 07:38 | 37.82885 | 22.27270 | 27092 ft | 424 kts | 117° |
| 2026-05-07 07:38 | 37.81568 | 22.30594 | 26504 ft | 421 kts | 117° |
| 2026-05-07 07:38 | 37.80261 | 22.33892 | 25923 ft | 418 kts | 117° |
| 2026-05-07 07:38 | 37.78958 | 22.37171 | 25313 ft | 416 kts | 117° |
| 2026-05-07 07:39 | 37.77671 | 22.40415 | 24781 ft | 412 kts | 117° |
| 2026-05-07 07:39 | 37.76388 | 22.43638 | 24168 ft | 409 kts | 117° |
| 2026-05-07 07:39 | 37.75112 | 22.46840 | 23597 ft | 406 kts | 117° |
| 2026-05-07 07:39 | 37.73847 | 22.50017 | 23063 ft | 402 kts | 117° |
| 2026-05-07 07:40 | 37.72595 | 22.53155 | 22542 ft | 398 kts | 117° |
| 2026-05-07 07:40 | 37.71342 | 22.56257 | 22007 ft | 395 kts | 117° |
| 2026-05-07 07:40 | 37.70151 | 22.59371 | 21498 ft | 392 kts | 114° |
| 2026-05-07 07:40 | 37.69040 | 22.62490 | 21004 ft | 388 kts | 114° |
| 2026-05-07 07:41 | 37.67934 | 22.65576 | 20521 ft | 383 kts | 114° |
| 2026-05-07 07:41 | 37.66848 | 22.68632 | 20053 ft | 379 kts | 114° |
| 2026-05-07 07:41 | 37.65778 | 22.71657 | 19556 ft | 376 kts | 114° |
| 2026-05-07 07:41 | 37.64715 | 22.74648 | 19112 ft | 371 kts | 114° |
| 2026-05-07 07:42 | 37.63657 | 22.77589 | 18691 ft | 366 kts | 114° |
| 2026-05-07 07:42 | 37.62608 | 22.80491 | 18266 ft | 362 kts | 114° |
| 2026-05-07 07:42 | 37.61578 | 22.83364 | 17840 ft | 357 kts | 114° |
| 2026-05-07 07:42 | 37.60566 | 22.86199 | 17425 ft | 353 kts | 114° |
| 2026-05-07 07:43 | 37.59897 | 22.88056 | 17149 ft | 350 kts | 114° |
| 2026-05-07 07:43 | 37.58889 | 22.90827 | 16743 ft | 345 kts | 114° |
| 2026-05-07 07:43 | 37.57893 | 22.93565 | 16337 ft | 342 kts | 114° |
| 2026-05-07 07:43 | 37.56905 | 22.96293 | 15957 ft | 343 kts | 114° |
| 2026-05-07 07:44 | 37.55914 | 22.99032 | 15577 ft | 344 kts | 114° |
| 2026-05-07 07:44 | 37.54923 | 23.01774 | 15191 ft | 344 kts | 114° |
| 2026-05-07 07:44 | 37.53928 | 23.04529 | 14772 ft | 346 kts | 114° |
| 2026-05-07 07:44 | 37.52924 | 23.07299 | 14345 ft | 349 kts | 114° |
| 2026-05-07 07:45 | 37.51923 | 23.10064 | 13932 ft | 345 kts | 114° |
| 2026-05-07 07:45 | 37.51003 | 23.12827 | 13522 ft | 339 kts | 108° |
| 2026-05-07 07:45 | 37.50298 | 23.15639 | 13121 ft | 334 kts | 106° |
| 2026-05-07 07:45 | 37.49622 | 23.18413 | 12725 ft | 329 kts | 106° |
| 2026-05-07 07:46 | 37.48968 | 23.21162 | 12311 ft | 325 kts | 103° |
| 2026-05-07 07:46 | 37.48793 | 23.23950 | 11884 ft | 318 kts | 79° |
| 2026-05-07 07:46 | 37.49524 | 23.26510 | 11508 ft | 308 kts | 60° |
| 2026-05-07 07:46 | 37.50571 | 23.28839 | 11139 ft | 304 kts | 58° |
| 2026-05-07 07:47 | 37.51627 | 23.31153 | 10767 ft | 305 kts | 59° |
| 2026-05-07 07:47 | 37.52657 | 23.33499 | 10387 ft | 306 kts | 60° |
| 2026-05-07 07:47 | 37.53664 | 23.35855 | 10078 ft | 302 kts | 61° |
| 2026-05-07 07:47 | 37.54644 | 23.38174 | 9724 ft | 298 kts | 61° |
| 2026-05-07 07:48 | 37.55607 | 23.40467 | 9323 ft | 295 kts | 62° |
| 2026-05-07 07:48 | 37.56566 | 23.42750 | 8869 ft | 293 kts | 62° |
| 2026-05-07 07:48 | 37.57519 | 23.45010 | 8439 ft | 292 kts | 62° |
| 2026-05-07 07:48 | 37.58467 | 23.47263 | 8032 ft | 289 kts | 62° |
| 2026-05-07 07:49 | 37.59402 | 23.49492 | 7660 ft | 288 kts | 62° |
| 2026-05-07 07:49 | 37.60336 | 23.51721 | 7298 ft | 288 kts | 62° |
| 2026-05-07 07:49 | 37.61271 | 23.53957 | 6922 ft | 288 kts | 63° |
| 2026-05-07 07:49 | 37.62201 | 23.56181 | 6534 ft | 285 kts | 63° |
| 2026-05-07 07:50 | 37.63121 | 23.58376 | 6160 ft | 281 kts | 63° |
| 2026-05-07 07:50 | 37.64030 | 23.60545 | 5791 ft | 278 kts | 63° |
| 2026-05-07 07:50 | 37.64935 | 23.62706 | 5423 ft | 279 kts | 63° |
| 2026-05-07 07:50 | 37.65827 | 23.64840 | 5075 ft | 278 kts | 63° |
| 2026-05-07 07:51 | 37.66731 | 23.66996 | 4713 ft | 278 kts | 63° |
| 2026-05-07 07:51 | 37.67646 | 23.69135 | 4338 ft | 276 kts | 60° |
| 2026-05-07 07:51 | 37.68713 | 23.71123 | 4026 ft | 271 kts | 52° |
| 2026-05-07 07:51 | 37.69953 | 23.72836 | 3953 ft | 257 kts | 45° |
| 2026-05-07 07:52 | 37.71253 | 23.74284 | 3945 ft | 245 kts | 39° |
| 2026-05-07 07:52 | 37.72571 | 23.75523 | 3942 ft | 226 kts | 38° |
| 2026-05-07 07:52 | 37.73802 | 23.76695 | 3948 ft | 214 kts | 38° |
| 2026-05-07 07:52 | 37.74918 | 23.77753 | 3993 ft | 188 kts | 38° |
| 2026-05-07 07:53 | 37.75913 | 23.78697 | 3972 ft | 174 kts | 38° |
| 2026-05-07 07:53 | 37.76875 | 23.79610 | 3938 ft | 173 kts | 38° |
| 2026-05-07 07:53 | 37.77834 | 23.80520 | 3800 ft | 172 kts | 37° |
| 2026-05-07 07:53 | 37.78794 | 23.81431 | 3600 ft | 172 kts | 38° |
| 2026-05-07 07:54 | 37.79725 | 23.82315 | 3407 ft | 165 kts | 38° |
| 2026-05-07 07:54 | 37.80639 | 23.83184 | 3202 ft | 164 kts | 38° |
| 2026-05-07 07:54 | 37.81553 | 23.84052 | 2987 ft | 164 kts | 38° |
| 2026-05-07 07:54 | 37.82460 | 23.84913 | 2771 ft | 162 kts | 38° |
| 2026-05-07 07:55 | 37.83356 | 23.85765 | 2523 ft | 160 kts | 38° |
| 2026-05-07 07:55 | 37.84237 | 23.86603 | 2320 ft | 157 kts | 38° |
| 2026-05-07 07:55 | 37.85107 | 23.87431 | 2104 ft | 155 kts | 38° |
| 2026-05-07 07:55 | 37.85967 | 23.88248 | 1890 ft | 154 kts | 38° |
| 2026-05-07 07:56 | 37.86820 | 23.89060 | 1688 ft | 154 kts | 38° |
| 2026-05-07 07:56 | 37.87673 | 23.89871 | 1475 ft | 153 kts | 37° |
| 2026-05-07 07:56 | 37.88520 | 23.90679 | 1286 ft | 152 kts | 37° |
| 2026-05-07 07:56 | 37.89366 | 23.91485 | 1087 ft | 151 kts | 37° |
| 2026-05-07 07:57 | 37.90206 | 23.92284 | 883 ft | 151 kts | 37° |
| 2026-05-07 07:57 | 37.91038 | 23.93072 | 662 ft | 150 kts | 36° |
| 2026-05-07 07:57 | 37.91887 | 23.93875 | 453 ft | 150 kts | 36° |
| 2026-05-07 07:57 | 37.92710 | 23.94657 | 321 ft | 147 kts | 36° |
| 2026-05-07 07:58 | 37.93454 | 23.95363 | 292 ft | 110 kts | 38° |
| 2026-05-07 07:58 | 37.93903 | 23.95794 | 284 ft | 52 kts | 42° |
| 2026-05-07 07:58 | 37.94050 | 23.95950 | 288 ft | 21 kts | 28° |
| 2026-05-07 07:58 | 37.94197 | 23.96000 | 292 ft | 23 kts | 8° |
| 2026-05-07 07:59 | 37.94261 | 23.96011 | 296 ft | 0 kts | 8° |
| 2026-05-07 07:59 | 37.94277 | 23.96014 | 300 ft | 4 kts | 8° |
| 2026-05-07 07:59 | 37.94284 | 23.96015 | 297 ft | 0 kts | 8° |
| 2026-05-07 07:59 | 37.94291 | 23.96017 | 301 ft | 3 kts | 8° |
| 2026-05-07 08:00 | 37.94323 | 23.96022 | 301 ft | 6 kts | 8° |
| 2026-05-07 08:00 | 37.94378 | 23.96031 | 304 ft | 10 kts | 8° |
| 2026-05-07 08:00 | 37.94458 | 23.96046 | 303 ft | 13 kts | 10° |
| 2026-05-07 08:00 | 37.94493 | 23.96073 | 306 ft | 16 kts | 37° |
| 2026-05-07 08:01 | 37.94594 | 23.96123 | 305 ft | 18 kts | 317° |
| 2026-05-07 08:01 | 37.94553 | 23.95997 | 307 ft | 19 kts | 214° |
| 2026-05-07 08:01 | 37.94442 | 23.95892 | 305 ft | 21 kts | 217° |
| 2026-05-07 08:01 | 37.94327 | 23.95781 | 305 ft | 21 kts | 217° |
| 2026-05-07 08:02 | 37.94207 | 23.95667 | 307 ft | 22 kts | 217° |
| 2026-05-07 08:02 | 37.94083 | 23.95549 | 306 ft | 15 kts | 217° |
| 2026-05-07 08:02 | 37.93996 | 23.95466 | 306 ft | 16 kts | 217° |
| 2026-05-07 08:02 | 37.93905 | 23.95369 | 307 ft | 18 kts | 240° |
| 2026-05-07 08:03 | 37.93855 | 23.95219 | 307 ft | 19 kts | 240° |
| 2026-05-07 08:03 | 37.93751 | 23.95105 | 306 ft | 21 kts | 217° |
| 2026-05-07 08:03 | 37.93646 | 23.95004 | 307 ft | 18 kts | 217° |
| 2026-05-07 08:03 | 37.93544 | 23.94908 | 306 ft | 19 kts | 217° |
| 2026-05-07 08:04 | 37.93434 | 23.94803 | 306 ft | 20 kts | 217° |
| 2026-05-07 08:04 | 37.93317 | 23.94691 | 307 ft | 22 kts | 217° |
| 2026-05-07 08:04 | 37.93211 | 23.94590 | 308 ft | 19 kts | 217° |
| 2026-05-07 08:04 | 37.93164 | 23.94489 | 306 ft | 12 kts | 291° |
| 2026-05-07 08:05 | 37.93190 | 23.94439 | 308 ft | 4 kts | 295° |
| 2026-05-07 08:05 | 37.93175 | 23.94399 | 306 ft | 6 kts | 219° |
| 2026-05-07 08:05 | 37.93157 | 23.94382 | 306 ft | 2 kts | 217° |
| 2026-05-07 08:05 | 37.93145 | 23.94369 | 306 ft | 0 kts | 217° |